sensor_id;sensor_type;location;lat;lon;timestamp;temperature;humidity
39847;DHT22;25517;52.422;10.782;2023-04-01T00:01:24;9.70;99.90
39847;DHT22;25517;52.422;10.782;2023-04-01T00:03:50;9.70;99.90
39847;DHT22;25517;52.422;10.782;2023-04-01T00:06:17;9.70;99.90
39847;DHT22;25517;52.422;10.782;2023-04-01T00:08:43;9.70;99.90
39847;DHT22;25517;52.422;10.782;2023-04-01T00:11:09;9.70;99.90
39847;DHT22;25517;52.422;10.782;2023-04-01T00:13:35;9.70;99.90
39847;DHT22;25517;52.422;10.782;2023-04-01T00:16:01;9.70;99.90
39847;DHT22;25517;52.422;10.782;2023-04-01T00:18:28;9.70;99.90
39847;DHT22;25517;52.422;10.782;2023-04-01T00:20:53;9.70;99.90
39847;DHT22;25517;52.422;10.782;2023-04-01T00:23:20;9.70;99.90
39847;DHT22;25517;52.422;10.782;2023-04-01T00:25:46;9.70;99.90
39847;DHT22;25517;52.422;10.782;2023-04-01T00:28:14;9.70;99.90
39847;DHT22;25517;52.422;10.782;2023-04-01T00:30:40;9.70;99.90
39847;DHT22;25517;52.422;10.782;2023-04-01T00:33:06;9.70;99.90
39847;DHT22;25517;52.422;10.782;2023-04-01T00:35:32;9.70;99.90
39847;DHT22;25517;52.422;10.782;2023-04-01T00:37:58;9.70;99.90
39847;DHT22;25517;52.422;10.782;2023-04-01T00:40:33;9.70;99.90
39847;DHT22;25517;52.422;10.782;2023-04-01T00:42:59;9.70;99.90
39847;DHT22;25517;52.422;10.782;2023-04-01T00:47:54;9.70;99.90
39847;DHT22;25517;52.422;10.782;2023-04-01T00:50:22;9.70;99.90
39847;DHT22;25517;52.422;10.782;2023-04-01T00:52:47;9.70;99.90
39847;DHT22;25517;52.422;10.782;2023-04-01T00:55:14;9.70;99.90
39847;DHT22;25517;52.422;10.782;2023-04-01T00:57:43;9.70;99.90
39847;DHT22;25517;52.422;10.782;2023-04-01T01:00:11;9.70;99.90
39847;DHT22;25517;52.422;10.782;2023-04-01T01:02:41;9.70;99.90
39847;DHT22;25517;52.422;10.782;2023-04-01T01:05:08;9.70;99.90
39847;DHT22;25517;52.422;10.782;2023-04-01T01:10:26;9.70;99.90
39847;DHT22;25517;52.422;10.782;2023-04-01T01:13:08;9.70;99.90
39847;DHT22;25517;52.422;10.782;2023-04-01T01:16:04;9.70;99.90
39847;DHT22;25517;52.422;10.782;2023-04-01T01:19:07;9.70;99.90
39847;DHT22;25517;52.422;10.782;2023-04-01T01:29:53;9.60;99.90
39847;DHT22;25517;52.422;10.782;2023-04-01T01:38:04;9.60;99.90
39847;DHT22;25517;52.422;10.782;2023-04-01T01:40:32;9.60;99.90
39847;DHT22;25517;52.422;10.782;2023-04-01T01:43:04;9.60;99.90
39847;DHT22;25517;52.422;10.782;2023-04-01T01:45:32;9.60;99.90
39847;DHT22;25517;52.422;10.782;2023-04-01T01:47:59;9.60;99.90
39847;DHT22;25517;52.422;10.782;2023-04-01T01:50:27;9.60;99.90
39847;DHT22;25517;52.422;10.782;2023-04-01T01:53:01;9.60;99.90
39847;DHT22;25517;52.422;10.782;2023-04-01T01:55:33;9.60;99.90
39847;DHT22;25517;52.422;10.782;2023-04-01T01:58:11;9.60;99.90
39847;DHT22;25517;52.422;10.782;2023-04-01T02:00:37;9.60;99.90
39847;DHT22;25517;52.422;10.782;2023-04-01T02:03:04;9.60;99.90
39847;DHT22;25517;52.422;10.782;2023-04-01T02:05:31;9.60;99.90
39847;DHT22;25517;52.422;10.782;2023-04-01T02:08:11;9.60;99.90
39847;DHT22;25517;52.422;10.782;2023-04-01T02:10:40;9.60;99.90
39847;DHT22;25517;52.422;10.782;2023-04-01T02:13:13;9.60;99.90
39847;DHT22;25517;52.422;10.782;2023-04-01T02:15:44;9.60;99.90
39847;DHT22;25517;52.422;10.782;2023-04-01T02:18:12;9.60;99.90
39847;DHT22;25517;52.422;10.782;2023-04-01T02:20:38;9.60;99.90
39847;DHT22;25517;52.422;10.782;2023-04-01T02:23:06;9.60;99.90
39847;DHT22;25517;52.422;10.782;2023-04-01T02:25:35;9.50;99.90
39847;DHT22;25517;52.422;10.782;2023-04-01T02:28:04;9.60;99.90
39847;DHT22;25517;52.422;10.782;2023-04-01T02:30:33;9.50;99.90
39847;DHT22;25517;52.422;10.782;2023-04-01T02:33:00;9.50;99.90
39847;DHT22;25517;52.422;10.782;2023-04-01T02:35:26;9.50;99.90
39847;DHT22;25517;52.422;10.782;2023-04-01T02:37:55;9.50;99.90
39847;DHT22;25517;52.422;10.782;2023-04-01T02:40:21;9.50;99.90
39847;DHT22;25517;52.422;10.782;2023-04-01T02:42:46;9.50;99.90
39847;DHT22;25517;52.422;10.782;2023-04-01T02:45:13;9.40;99.90
39847;DHT22;25517;52.422;10.782;2023-04-01T02:47:38;9.50;99.90
39847;DHT22;25517;52.422;10.782;2023-04-01T02:50:05;9.50;99.90
39847;DHT22;25517;52.422;10.782;2023-04-01T02:52:31;9.60;99.90
39847;DHT22;25517;52.422;10.782;2023-04-01T02:54:57;9.60;99.90
39847;DHT22;25517;52.422;10.782;2023-04-01T02:57:23;9.50;99.90
39847;DHT22;25517;52.422;10.782;2023-04-01T02:59:49;9.50;99.90
39847;DHT22;25517;52.422;10.782;2023-04-01T03:02:15;9.50;99.90
39847;DHT22;25517;52.422;10.782;2023-04-01T03:04:41;9.50;99.90
39847;DHT22;25517;52.422;10.782;2023-04-01T03:07:07;9.50;99.90
39847;DHT22;25517;52.422;10.782;2023-04-01T03:09:33;9.40;99.90
39847;DHT22;25517;52.422;10.782;2023-04-01T03:11:59;9.50;99.90
39847;DHT22;25517;52.422;10.782;2023-04-01T03:14:25;9.50;99.90
39847;DHT22;25517;52.422;10.782;2023-04-01T03:16:50;9.40;99.90
39847;DHT22;25517;52.422;10.782;2023-04-01T03:19:16;9.40;99.90
39847;DHT22;25517;52.422;10.782;2023-04-01T03:21:41;9.40;99.90
39847;DHT22;25517;52.422;10.782;2023-04-01T03:24:07;9.50;99.90
39847;DHT22;25517;52.422;10.782;2023-04-01T03:26:33;9.40;99.90
39847;DHT22;25517;52.422;10.782;2023-04-01T03:28:58;9.40;99.90
39847;DHT22;25517;52.422;10.782;2023-04-01T03:31:24;9.40;99.90
39847;DHT22;25517;52.422;10.782;2023-04-01T03:33:50;9.40;99.90
39847;DHT22;25517;52.422;10.782;2023-04-01T03:36:15;9.40;99.90
39847;DHT22;25517;52.422;10.782;2023-04-01T03:38:41;9.30;99.90
39847;DHT22;25517;52.422;10.782;2023-04-01T03:41:12;9.30;99.90
39847;DHT22;25517;52.422;10.782;2023-04-01T03:43:37;9.40;99.90
39847;DHT22;25517;52.422;10.782;2023-04-01T03:46:03;9.40;99.90
39847;DHT22;25517;52.422;10.782;2023-04-01T03:48:29;9.40;99.90
39847;DHT22;25517;52.422;10.782;2023-04-01T03:50:54;9.40;99.90
39847;DHT22;25517;52.422;10.782;2023-04-01T03:53:20;9.40;99.90
39847;DHT22;25517;52.422;10.782;2023-04-01T03:55:45;9.40;99.90
39847;DHT22;25517;52.422;10.782;2023-04-01T03:58:12;9.40;99.90
39847;DHT22;25517;52.422;10.782;2023-04-01T04:00:37;9.40;99.90
39847;DHT22;25517;52.422;10.782;2023-04-01T04:03:03;9.40;99.90
39847;DHT22;25517;52.422;10.782;2023-04-01T04:05:28;9.40;99.90
39847;DHT22;25517;52.422;10.782;2023-04-01T04:07:54;9.40;99.90
39847;DHT22;25517;52.422;10.782;2023-04-01T04:10:20;9.40;99.90
39847;DHT22;25517;52.422;10.782;2023-04-01T04:12:49;9.30;99.90
39847;DHT22;25517;52.422;10.782;2023-04-01T04:15:14;9.30;99.90
39847;DHT22;25517;52.422;10.782;2023-04-01T04:17:40;9.40;99.90
39847;DHT22;25517;52.422;10.782;2023-04-01T04:20:07;9.30;99.90
39847;DHT22;25517;52.422;10.782;2023-04-01T04:22:33;9.30;99.90
39847;DHT22;25517;52.422;10.782;2023-04-01T04:24:59;9.30;99.90
39847;DHT22;25517;52.422;10.782;2023-04-01T04:27:24;9.30;99.90
39847;DHT22;25517;52.422;10.782;2023-04-01T04:29:50;9.30;99.90
39847;DHT22;25517;52.422;10.782;2023-04-01T04:32:15;9.30;99.90
39847;DHT22;25517;52.422;10.782;2023-04-01T04:34:41;9.30;99.90
39847;DHT22;25517;52.422;10.782;2023-04-01T04:37:06;9.30;99.90
39847;DHT22;25517;52.422;10.782;2023-04-01T04:39:32;9.30;99.90
39847;DHT22;25517;52.422;10.782;2023-04-01T04:41:57;9.30;99.90
39847;DHT22;25517;52.422;10.782;2023-04-01T04:44:23;9.30;99.90
39847;DHT22;25517;52.422;10.782;2023-04-01T04:46:48;9.30;99.90
39847;DHT22;25517;52.422;10.782;2023-04-01T04:49:14;9.30;99.90
39847;DHT22;25517;52.422;10.782;2023-04-01T04:51:40;9.40;99.90
39847;DHT22;25517;52.422;10.782;2023-04-01T04:54:06;9.40;99.90
39847;DHT22;25517;52.422;10.782;2023-04-01T04:56:32;9.30;99.90
39847;DHT22;25517;52.422;10.782;2023-04-01T04:58:58;9.30;99.90
39847;DHT22;25517;52.422;10.782;2023-04-01T05:01:24;9.30;99.90
39847;DHT22;25517;52.422;10.782;2023-04-01T05:03:50;9.30;99.90
39847;DHT22;25517;52.422;10.782;2023-04-01T05:06:17;9.30;99.90
39847;DHT22;25517;52.422;10.782;2023-04-01T05:08:44;9.30;99.90
39847;DHT22;25517;52.422;10.782;2023-04-01T05:11:13;9.40;99.90
39847;DHT22;25517;52.422;10.782;2023-04-01T05:13:40;9.30;99.90
39847;DHT22;25517;52.422;10.782;2023-04-01T05:16:10;9.30;99.90
39847;DHT22;25517;52.422;10.782;2023-04-01T05:18:36;9.30;99.90
39847;DHT22;25517;52.422;10.782;2023-04-01T05:21:02;9.30;99.90
39847;DHT22;25517;52.422;10.782;2023-04-01T05:23:27;9.30;99.90
39847;DHT22;25517;52.422;10.782;2023-04-01T05:25:53;9.30;99.90
39847;DHT22;25517;52.422;10.782;2023-04-01T05:28:19;9.30;99.90
39847;DHT22;25517;52.422;10.782;2023-04-01T05:30:45;9.40;99.90
39847;DHT22;25517;52.422;10.782;2023-04-01T05:33:11;9.40;99.90
39847;DHT22;25517;52.422;10.782;2023-04-01T05:35:38;9.40;99.90
39847;DHT22;25517;52.422;10.782;2023-04-01T05:38:04;9.40;99.90
39847;DHT22;25517;52.422;10.782;2023-04-01T05:40:30;9.40;99.90
39847;DHT22;25517;52.422;10.782;2023-04-01T05:42:56;9.50;99.90
39847;DHT22;25517;52.422;10.782;2023-04-01T05:45:21;9.50;99.90
39847;DHT22;25517;52.422;10.782;2023-04-01T05:47:47;9.50;99.90
39847;DHT22;25517;52.422;10.782;2023-04-01T05:50:12;9.60;99.90
39847;DHT22;25517;52.422;10.782;2023-04-01T05:52:38;9.60;99.90
39847;DHT22;25517;52.422;10.782;2023-04-01T05:55:05;9.60;99.90
39847;DHT22;25517;52.422;10.782;2023-04-01T05:57:31;9.70;99.90
39847;DHT22;25517;52.422;10.782;2023-04-01T05:59:57;9.70;99.90
39847;DHT22;25517;52.422;10.782;2023-04-01T06:02:22;9.70;99.90
39847;DHT22;25517;52.422;10.782;2023-04-01T06:04:49;9.80;99.90
39847;DHT22;25517;52.422;10.782;2023-04-01T06:07:16;9.80;99.90
39847;DHT22;25517;52.422;10.782;2023-04-01T06:09:44;9.80;99.90
39847;DHT22;25517;52.422;10.782;2023-04-01T06:12:29;9.90;99.90
39847;DHT22;25517;52.422;10.782;2023-04-01T06:15:18;9.90;99.90
39847;DHT22;25517;52.422;10.782;2023-04-01T06:18:03;9.90;99.90
39847;DHT22;25517;52.422;10.782;2023-04-01T06:32:00;10.00;99.90
39847;DHT22;25517;52.422;10.782;2023-04-01T06:37:23;10.20;99.90
39847;DHT22;25517;52.422;10.782;2023-04-01T06:45:52;10.30;99.90
39847;DHT22;25517;52.422;10.782;2023-04-01T06:54:00;10.60;99.90
39847;DHT22;25517;52.422;10.782;2023-04-01T06:56:29;10.70;99.90
39847;DHT22;25517;52.422;10.782;2023-04-01T07:01:38;10.80;99.90
39847;DHT22;25517;52.422;10.782;2023-04-01T07:04:11;10.70;99.90
39847;DHT22;25517;52.422;10.782;2023-04-01T07:06:52;10.80;99.90
39847;DHT22;25517;52.422;10.782;2023-04-01T07:09:22;10.80;99.90
39847;DHT22;25517;52.422;10.782;2023-04-01T07:11:50;10.80;99.90
39847;DHT22;25517;52.422;10.782;2023-04-01T07:14:24;10.80;99.90
39847;DHT22;25517;52.422;10.782;2023-04-01T07:17:14;10.80;99.90
39847;DHT22;25517;52.422;10.782;2023-04-01T07:19:57;10.90;99.90
39847;DHT22;25517;52.422;10.782;2023-04-01T07:22:35;10.70;99.90
39847;DHT22;25517;52.422;10.782;2023-04-01T07:25:13;10.80;99.90
39847;DHT22;25517;52.422;10.782;2023-04-01T07:27:41;11.00;99.90
39847;DHT22;25517;52.422;10.782;2023-04-01T07:30:28;11.10;99.90
39847;DHT22;25517;52.422;10.782;2023-04-01T07:33:16;11.30;99.90
39847;DHT22;25517;52.422;10.782;2023-04-01T07:36:05;11.30;99.90
39847;DHT22;25517;52.422;10.782;2023-04-01T07:38:49;11.60;99.90
39847;DHT22;25517;52.422;10.782;2023-04-01T07:41:26;11.50;99.90
39847;DHT22;25517;52.422;10.782;2023-04-01T07:44:28;11.70;99.90
39847;DHT22;25517;52.422;10.782;2023-04-01T07:47:23;11.90;99.90
39847;DHT22;25517;52.422;10.782;2023-04-01T07:55:14;12.50;99.90
39847;DHT22;25517;52.422;10.782;2023-04-01T07:58:08;12.60;99.90
39847;DHT22;25517;52.422;10.782;2023-04-01T08:00:57;12.70;99.90
39847;DHT22;25517;52.422;10.782;2023-04-01T08:06:31;12.90;99.90
39847;DHT22;25517;52.422;10.782;2023-04-01T08:09:34;13.00;99.90
39847;DHT22;25517;52.422;10.782;2023-04-01T08:14:46;13.30;99.90
39847;DHT22;25517;52.422;10.782;2023-04-01T08:22:48;13.40;99.90
39847;DHT22;25517;52.422;10.782;2023-04-01T08:25:18;13.40;99.90
39847;DHT22;25517;52.422;10.782;2023-04-01T08:27:53;13.10;99.90
39847;DHT22;25517;52.422;10.782;2023-04-01T08:30:25;13.50;99.90
39847;DHT22;25517;52.422;10.782;2023-04-01T08:33:17;13.40;99.90
39847;DHT22;25517;52.422;10.782;2023-04-01T08:39:02;14.10;99.90
39847;DHT22;25517;52.422;10.782;2023-04-01T08:47:31;14.80;99.90
39847;DHT22;25517;52.422;10.782;2023-04-01T08:50:24;14.50;99.90
39847;DHT22;25517;52.422;10.782;2023-04-01T09:00:53;13.80;99.90
39847;DHT22;25517;52.422;10.782;2023-04-01T09:06:35;13.40;99.90
39847;DHT22;25517;52.422;10.782;2023-04-01T09:26:08;12.70;99.90
39847;DHT22;25517;52.422;10.782;2023-04-01T09:35:02;13.20;99.90
39847;DHT22;25517;52.422;10.782;2023-04-01T09:44:36;13.10;99.90
39847;DHT22;25517;52.422;10.782;2023-04-01T09:47:01;13.10;99.90
39847;DHT22;25517;52.422;10.782;2023-04-01T09:50:35;12.90;99.90
39847;DHT22;25517;52.422;10.782;2023-04-01T10:50:45;14.60;99.90
39847;DHT22;25517;52.422;10.782;2023-04-01T11:04:47;14.50;99.90
39847;DHT22;25517;52.422;10.782;2023-04-01T11:07:48;14.30;99.90
39847;DHT22;25517;52.422;10.782;2023-04-01T11:23:14;14.10;99.90
39847;DHT22;25517;52.422;10.782;2023-04-01T11:39:27;14.00;99.90
39847;DHT22;25517;52.422;10.782;2023-04-01T11:44:45;14.00;99.90
39847;DHT22;25517;52.422;10.782;2023-04-01T11:47:40;14.10;99.90
39847;DHT22;25517;52.422;10.782;2023-04-01T11:53:22;14.10;99.90
39847;DHT22;25517;52.422;10.782;2023-04-01T11:56:29;13.90;99.90
39847;DHT22;25517;52.422;10.782;2023-04-01T12:07:57;13.90;99.90
39847;DHT22;25517;52.422;10.782;2023-04-01T12:10:55;13.90;99.90
39847;DHT22;25517;52.422;10.782;2023-04-01T12:16:17;14.00;99.90
39847;DHT22;25517;52.422;10.782;2023-04-01T12:19:02;14.00;99.90
39847;DHT22;25517;52.422;10.782;2023-04-01T12:26:43;13.80;99.90
39847;DHT22;25517;52.422;10.782;2023-04-01T12:32:19;13.90;99.90
39847;DHT22;25517;52.422;10.782;2023-04-01T12:40:36;13.70;99.90
39847;DHT22;25517;52.422;10.782;2023-04-01T12:46:10;13.60;99.90
39847;DHT22;25517;52.422;10.782;2023-04-01T12:49:02;13.50;99.90
39847;DHT22;25517;52.422;10.782;2023-04-01T12:52:07;13.40;99.90
39847;DHT22;25517;52.422;10.782;2023-04-01T12:57:44;12.80;99.90
39847;DHT22;25517;52.422;10.782;2023-04-01T13:08:43;12.10;99.90
39847;DHT22;25517;52.422;10.782;2023-04-01T13:19:31;11.50;99.90
39847;DHT22;25517;52.422;10.782;2023-04-01T13:22:24;11.40;99.90
39847;DHT22;25517;52.422;10.782;2023-04-01T13:27:34;11.20;99.90
39847;DHT22;25517;52.422;10.782;2023-04-01T13:38:03;10.80;99.90
39847;DHT22;25517;52.422;10.782;2023-04-01T13:43:24;10.70;99.90
39847;DHT22;25517;52.422;10.782;2023-04-01T13:46:20;10.50;99.90
39847;DHT22;25517;52.422;10.782;2023-04-01T13:57:26;10.10;99.90
39847;DHT22;25517;52.422;10.782;2023-04-01T14:06:06;9.90;99.90
39847;DHT22;25517;52.422;10.782;2023-04-01T14:08:56;9.90;99.90
39847;DHT22;25517;52.422;10.782;2023-04-01T14:11:50;9.80;99.90
39847;DHT22;25517;52.422;10.782;2023-04-01T14:14:22;9.70;99.90
39847;DHT22;25517;52.422;10.782;2023-04-01T14:27:41;9.50;99.90
39847;DHT22;25517;52.422;10.782;2023-04-01T14:30:35;9.40;99.90
39847;DHT22;25517;52.422;10.782;2023-04-01T14:44:51;9.30;99.90
39847;DHT22;25517;52.422;10.782;2023-04-01T14:47:43;9.20;99.90
39847;DHT22;25517;52.422;10.782;2023-04-01T14:50:18;9.20;99.90
39847;DHT22;25517;52.422;10.782;2023-04-01T14:58:14;9.00;99.90
39847;DHT22;25517;52.422;10.782;2023-04-01T15:00:58;9.00;99.90
39847;DHT22;25517;52.422;10.782;2023-04-01T15:15:02;8.70;99.90
39847;DHT22;25517;52.422;10.782;2023-04-01T15:20:35;8.70;99.90
39847;DHT22;25517;52.422;10.782;2023-04-01T15:23:12;8.80;99.90
39847;DHT22;25517;52.422;10.782;2023-04-01T15:36:40;8.80;99.90
39847;DHT22;25517;52.422;10.782;2023-04-01T15:48:02;8.60;99.90
39847;DHT22;25517;52.422;10.782;2023-04-01T15:53:24;8.40;99.90
39847;DHT22;25517;52.422;10.782;2023-04-01T15:56:06;8.40;99.90
39847;DHT22;25517;52.422;10.782;2023-04-01T16:01:13;8.30;99.90
39847;DHT22;25517;52.422;10.782;2023-04-01T16:03:54;8.30;99.90
39847;DHT22;25517;52.422;10.782;2023-04-01T16:06:51;8.30;99.90
39847;DHT22;25517;52.422;10.782;2023-04-01T16:09:42;8.20;99.90
39847;DHT22;25517;52.422;10.782;2023-04-01T16:12:18;8.10;99.90
39847;DHT22;25517;52.422;10.782;2023-04-01T16:37:54;7.70;99.90
39847;DHT22;25517;52.422;10.782;2023-04-01T16:40:47;7.60;99.90
39847;DHT22;25517;52.422;10.782;2023-04-01T16:43:43;7.50;99.90
39847;DHT22;25517;52.422;10.782;2023-04-01T16:46:57;7.50;99.90
39847;DHT22;25517;52.422;10.782;2023-04-01T16:49:36;7.50;99.90
39847;DHT22;25517;52.422;10.782;2023-04-01T17:02:38;7.40;99.90
39847;DHT22;25517;52.422;10.782;2023-04-01T17:05:11;7.40;99.90
39847;DHT22;25517;52.422;10.782;2023-04-01T17:08:06;7.40;99.90
39847;DHT22;25517;52.422;10.782;2023-04-01T17:10:53;7.30;99.90
39847;DHT22;25517;52.422;10.782;2023-04-01T17:16:17;7.20;99.90
39847;DHT22;25517;52.422;10.782;2023-04-01T17:35:16;7.00;99.90
39847;DHT22;25517;52.422;10.782;2023-04-01T17:40:49;6.90;99.90
39847;DHT22;25517;52.422;10.782;2023-04-01T17:51:43;6.60;99.90
39847;DHT22;25517;52.422;10.782;2023-04-01T17:54:41;6.60;99.90
39847;DHT22;25517;52.422;10.782;2023-04-01T18:02:42;6.60;99.90
39847;DHT22;25517;52.422;10.782;2023-04-01T18:16:54;6.60;99.90
39847;DHT22;25517;52.422;10.782;2023-04-01T18:22:28;6.50;99.90
39847;DHT22;25517;52.422;10.782;2023-04-01T18:27:36;6.50;99.90
39847;DHT22;25517;52.422;10.782;2023-04-01T18:30:35;6.50;99.90
39847;DHT22;25517;52.422;10.782;2023-04-01T18:33:24;6.40;99.90
39847;DHT22;25517;52.422;10.782;2023-04-01T18:39:32;6.30;99.90
39847;DHT22;25517;52.422;10.782;2023-04-01T18:44:48;6.20;99.90
39847;DHT22;25517;52.422;10.782;2023-04-01T18:52:42;6.20;99.90
39847;DHT22;25517;52.422;10.782;2023-04-01T18:55:35;6.20;99.90
39847;DHT22;25517;52.422;10.782;2023-04-01T18:58:22;6.10;99.90
39847;DHT22;25517;52.422;10.782;2023-04-01T19:01:16;6.00;99.90
39847;DHT22;25517;52.422;10.782;2023-04-01T19:04:01;6.00;99.90
39847;DHT22;25517;52.422;10.782;2023-04-01T19:06:33;6.00;99.90
39847;DHT22;25517;52.422;10.782;2023-04-01T19:09:16;5.90;99.90
39847;DHT22;25517;52.422;10.782;2023-04-01T19:17:21;5.80;99.90
39847;DHT22;25517;52.422;10.782;2023-04-01T19:23:08;5.80;99.90
39847;DHT22;25517;52.422;10.782;2023-04-01T19:25:51;5.70;99.90
39847;DHT22;25517;52.422;10.782;2023-04-01T19:28:56;5.80;99.90
39847;DHT22;25517;52.422;10.782;2023-04-01T19:36:57;5.80;99.90
39847;DHT22;25517;52.422;10.782;2023-04-01T19:47:20;5.70;99.90
39847;DHT22;25517;52.422;10.782;2023-04-01T19:52:42;5.60;99.90
39847;DHT22;25517;52.422;10.782;2023-04-01T20:00:58;5.60;99.90
39847;DHT22;25517;52.422;10.782;2023-04-01T20:04:00;5.50;99.90
39847;DHT22;25517;52.422;10.782;2023-04-01T20:06:38;5.50;99.90
39847;DHT22;25517;52.422;10.782;2023-04-01T20:14:30;5.50;99.90
39847;DHT22;25517;52.422;10.782;2023-04-01T20:17:11;5.40;99.90
39847;DHT22;25517;52.422;10.782;2023-04-01T20:24:51;5.20;99.90
39847;DHT22;25517;52.422;10.782;2023-04-01T20:27:24;5.20;99.90
39847;DHT22;25517;52.422;10.782;2023-04-01T20:33:00;5.20;99.90
39847;DHT22;25517;52.422;10.782;2023-04-01T20:49:33;5.00;99.90
39847;DHT22;25517;52.422;10.782;2023-04-01T20:55:03;5.00;99.90
39847;DHT22;25517;52.422;10.782;2023-04-01T20:58:48;4.90;99.90
39847;DHT22;25517;52.422;10.782;2023-04-01T21:11:53;4.80;99.90
39847;DHT22;25517;52.422;10.782;2023-04-01T21:14:49;4.80;99.90
39847;DHT22;25517;52.422;10.782;2023-04-01T21:17:42;4.80;99.90
39847;DHT22;25517;52.422;10.782;2023-04-01T21:25:56;4.70;99.90
39847;DHT22;25517;52.422;10.782;2023-04-01T21:42:50;4.60;99.90
39847;DHT22;25517;52.422;10.782;2023-04-01T21:48:29;4.60;99.90
39847;DHT22;25517;52.422;10.782;2023-04-01T21:56:49;4.50;99.90
39847;DHT22;25517;52.422;10.782;2023-04-01T22:13:16;4.40;99.90
39847;DHT22;25517;52.422;10.782;2023-04-01T22:15:46;4.50;99.90
39847;DHT22;25517;52.422;10.782;2023-04-01T22:18:37;4.50;99.90
39847;DHT22;25517;52.422;10.782;2023-04-01T22:21:18;4.50;99.90
39847;DHT22;25517;52.422;10.782;2023-04-01T22:29:07;4.40;99.90
39847;DHT22;25517;52.422;10.782;2023-04-01T22:31:52;4.50;99.90
39847;DHT22;25517;52.422;10.782;2023-04-01T22:34:42;4.40;99.90
39847;DHT22;25517;52.422;10.782;2023-04-01T22:37:40;4.40;99.90
39847;DHT22;25517;52.422;10.782;2023-04-01T22:42:56;4.30;99.90
39847;DHT22;25517;52.422;10.782;2023-04-01T22:48:16;4.30;99.90
39847;DHT22;25517;52.422;10.782;2023-04-01T22:50:47;4.20;99.90
39847;DHT22;25517;52.422;10.782;2023-04-01T22:53:32;4.20;99.90
39847;DHT22;25517;52.422;10.782;2023-04-01T22:56:07;4.20;99.90
39847;DHT22;25517;52.422;10.782;2023-04-01T22:58:41;4.20;99.90
39847;DHT22;25517;52.422;10.782;2023-04-01T23:01:12;4.20;99.90
39847;DHT22;25517;52.422;10.782;2023-04-01T23:03:41;4.10;99.90
39847;DHT22;25517;52.422;10.782;2023-04-01T23:06:12;4.10;99.90
39847;DHT22;25517;52.422;10.782;2023-04-01T23:11:49;4.00;99.90
39847;DHT22;25517;52.422;10.782;2023-04-01T23:22:33;4.00;99.90
39847;DHT22;25517;52.422;10.782;2023-04-01T23:35:52;3.80;99.90
39847;DHT22;25517;52.422;10.782;2023-04-01T23:38:20;3.80;99.90
39847;DHT22;25517;52.422;10.782;2023-04-01T23:40:51;3.80;99.90
39847;DHT22;25517;52.422;10.782;2023-04-01T23:43:30;3.80;99.90
39847;DHT22;25517;52.422;10.782;2023-04-01T23:46:01;3.80;99.90
39847;DHT22;25517;52.422;10.782;2023-04-01T23:48:40;3.90;99.90
39847;DHT22;25517;52.422;10.782;2023-04-01T23:51:36;3.90;99.90
39847;DHT22;25517;52.422;10.782;2023-04-01T23:54:10;3.80;99.90
39847;DHT22;25517;52.422;10.782;2023-04-01T23:56:55;3.80;99.90
39847;DHT22;25517;52.422;10.782;2023-04-01T23:59:35;3.80;99.90
